createdAt,value
2023-01-13T00:00:31.901Z,9.30
2023-01-13T00:03:04.399Z,7.40
2023-01-13T00:05:36.598Z,8.00
2023-01-13T00:08:11.111Z,7.20
2023-01-13T00:10:43.070Z,6.90
2023-01-13T00:13:16.026Z,7.80
2023-01-13T00:15:56.971Z,6.60
2023-01-13T00:18:29.987Z,7.80
2023-01-13T00:23:35.918Z,6.80
2023-01-13T00:26:11.777Z,7.40
2023-01-13T00:28:43.747Z,6.60
2023-01-13T00:31:17.390Z,6.30
2023-01-13T00:33:51.405Z,6.90
2023-01-13T00:36:24.173Z,6.50
2023-01-13T00:38:56.358Z,6.70
2023-01-13T00:41:49.458Z,7.00
2023-01-13T00:44:21.673Z,7.10
2023-01-13T00:46:53.584Z,6.30
2023-01-13T00:49:25.847Z,6.10
2023-01-13T00:51:58.008Z,6.30
2023-01-13T00:54:30.557Z,6.90
2023-01-13T00:57:02.667Z,6.60
2023-01-13T00:59:35.948Z,7.40
2023-01-13T01:02:08.033Z,7.50
2023-01-13T01:04:41.689Z,7.80
2023-01-13T01:07:13.989Z,7.40
2023-01-13T01:09:46.625Z,7.80
2023-01-13T01:12:18.873Z,8.30
2023-01-13T01:14:51.164Z,6.80
2023-01-13T01:17:23.421Z,6.80
2023-01-13T01:19:55.831Z,6.00
2023-01-13T01:22:28.112Z,5.90
2023-01-13T01:25:00.914Z,5.90
2023-01-13T01:27:33.437Z,6.00
2023-01-13T01:30:05.916Z,5.30
2023-01-13T01:32:38.959Z,5.20
2023-01-13T01:35:13.660Z,5.20
2023-01-13T01:37:46.165Z,5.30
2023-01-13T01:40:18.726Z,5.50
2023-01-13T01:43:07.851Z,5.10
2023-01-13T01:45:40.946Z,6.00
2023-01-13T01:48:15.507Z,5.30
2023-01-13T01:50:49.460Z,5.70
2023-01-13T01:53:30.654Z,5.90
2023-01-13T01:56:04.666Z,7.10
2023-01-13T01:58:45.861Z,7.90
2023-01-13T02:01:19.354Z,6.60
2023-01-13T02:03:59.878Z,6.20
2023-01-13T02:06:33.452Z,7.40
2023-01-13T02:09:06.239Z,7.30
2023-01-13T02:11:57.011Z,6.40
2023-01-13T02:14:31.418Z,7.70
2023-01-13T02:17:28.291Z,7.60
2023-01-13T02:20:37.851Z,7.50
2023-01-13T02:24:13.830Z,7.50
2023-01-13T02:27:26.336Z,7.60
2023-01-13T02:30:26.355Z,7.90
2023-01-13T02:33:10.651Z,7.40
2023-01-13T02:35:51.371Z,8.50
2023-01-13T02:38:40.021Z,7.80
2023-01-13T02:41:35.186Z,8.60
2023-01-13T02:44:08.388Z,8.70
2023-01-13T02:46:47.362Z,8.80
2023-01-13T02:49:26.775Z,8.00
2023-01-13T02:52:06.805Z,9.30
2023-01-13T02:54:43.752Z,7.90
2023-01-13T02:57:19.148Z,7.50
2023-01-13T02:59:52.189Z,6.80
2023-01-13T03:02:27.044Z,5.60
2023-01-13T03:05:00.664Z,6.90
2023-01-13T03:07:58.427Z,6.40
2023-01-13T03:10:52.268Z,6.10
2023-01-13T03:13:39.510Z,6.00
2023-01-13T03:16:24.843Z,6.30
2023-01-13T03:19:09.682Z,5.30
2023-01-13T03:21:48.928Z,5.20
2023-01-13T03:24:27.745Z,4.40
2023-01-13T03:27:06.045Z,5.00
2023-01-13T03:29:42.805Z,5.80
2023-01-13T03:32:19.932Z,5.50
2023-01-13T03:34:56.016Z,4.50
2023-01-13T03:37:33.009Z,5.50
2023-01-13T03:40:10.319Z,5.60
2023-01-13T03:43:06.617Z,5.10
2023-01-13T03:45:41.587Z,4.60
2023-01-13T03:48:18.094Z,5.30
2023-01-13T03:50:55.113Z,5.00
2023-01-13T03:53:30.424Z,4.70
2023-01-13T03:56:09.166Z,5.00
2023-01-13T03:58:44.636Z,4.90
2023-01-13T04:01:21.636Z,4.50
2023-01-13T04:03:59.013Z,4.60
2023-01-13T04:06:38.466Z,4.30
2023-01-13T04:09:19.665Z,4.30
2023-01-13T04:11:56.795Z,4.60
2023-01-13T04:14:30.875Z,5.00
2023-01-13T04:17:03.292Z,4.90
2023-01-13T04:19:36.102Z,4.00
2023-01-13T04:22:08.468Z,4.60
2023-01-13T04:24:41.276Z,4.70
2023-01-13T04:27:13.503Z,5.20
2023-01-13T04:29:45.489Z,5.10
2023-01-13T04:32:19.066Z,4.30
2023-01-13T04:34:51.326Z,5.10
2023-01-13T04:37:23.299Z,5.20
2023-01-13T04:39:55.499Z,5.30
2023-01-13T04:42:28.085Z,5.70
2023-01-13T04:45:00.091Z,5.70
2023-01-13T04:47:32.648Z,5.10
2023-01-13T04:50:04.860Z,5.20
2023-01-13T04:52:38.025Z,4.20
2023-01-13T04:55:11.987Z,4.90
2023-01-13T04:57:44.486Z,4.70
2023-01-13T05:00:19.508Z,5.00
2023-01-13T05:02:52.902Z,5.30
2023-01-13T05:05:25.812Z,5.00
2023-01-13T05:07:59.392Z,4.80
2023-01-13T05:10:32.028Z,5.40
2023-01-13T05:13:22.121Z,5.10
2023-01-13T05:16:18.306Z,4.80
2023-01-13T05:18:52.255Z,4.30
2023-01-13T05:21:42.390Z,4.80
2023-01-13T05:24:44.776Z,4.60
2023-01-13T05:27:20.076Z,4.00
2023-01-13T05:29:53.057Z,4.40
2023-01-13T05:32:28.174Z,4.00
2023-01-13T05:35:01.963Z,4.20
2023-01-13T05:40:21.925Z,3.90
2023-01-13T05:43:22.046Z,3.70
2023-01-13T05:45:58.261Z,4.00
2023-01-13T05:48:33.896Z,3.80
2023-01-13T05:51:07.920Z,3.70
2023-01-13T05:53:41.058Z,3.60
2023-01-13T05:56:14.168Z,3.50
2023-01-13T05:58:46.430Z,4.20
2023-01-13T06:01:18.793Z,4.10
2023-01-13T06:03:51.127Z,3.70
2023-01-13T06:06:23.414Z,3.40
2023-01-13T06:08:55.486Z,3.90
2023-01-13T06:11:29.184Z,3.80
2023-01-13T06:14:04.615Z,3.60
2023-01-13T06:16:36.880Z,3.30
2023-01-13T06:19:14.608Z,3.10
2023-01-13T06:21:46.943Z,3.70
2023-01-13T06:24:19.139Z,4.20
2023-01-13T06:26:52.058Z,4.20
2023-01-13T06:29:24.054Z,4.50
2023-01-13T06:31:57.747Z,4.80
2023-01-13T06:37:00.798Z,5.00
2023-01-13T06:39:33.927Z,4.70
2023-01-13T06:42:23.929Z,4.40
2023-01-13T06:44:56.021Z,4.20
2023-01-13T06:47:28.340Z,4.70
2023-01-13T06:50:00.731Z,4.80
2023-01-13T06:52:33.967Z,4.70
2023-01-13T06:55:07.048Z,4.60
2023-01-13T06:57:51.528Z,5.50
2023-01-13T07:00:26.729Z,5.30
2023-01-13T07:03:08.938Z,4.20
2023-01-13T07:05:41.927Z,4.30
2023-01-13T07:08:14.087Z,4.00
2023-01-13T07:10:46.322Z,3.60
2023-01-13T07:13:39.161Z,4.10
2023-01-13T07:16:12.146Z,3.30
2023-01-13T07:18:44.468Z,4.10
2023-01-13T07:21:19.510Z,4.30
2023-01-13T07:23:52.094Z,4.70
2023-01-13T07:26:24.280Z,4.20
2023-01-13T07:28:56.707Z,4.50
2023-01-13T07:31:28.898Z,4.60
2023-01-13T07:34:01.369Z,4.30
2023-01-13T07:36:33.628Z,4.40
2023-01-13T07:39:08.057Z,5.10
2023-01-13T07:41:57.603Z,4.60
2023-01-13T07:44:29.608Z,4.90
2023-01-13T07:47:01.690Z,4.60
2023-01-13T07:49:33.764Z,4.90
2023-01-13T07:52:06.146Z,5.20
2023-01-13T07:54:40.873Z,4.30
2023-01-13T07:57:13.654Z,4.40
2023-01-13T07:59:45.809Z,4.10
2023-01-13T08:02:18.210Z,4.60
2023-01-13T08:04:50.551Z,4.30
2023-01-13T08:07:24.861Z,5.30
2023-01-13T08:10:01.101Z,4.90
2023-01-13T08:12:57.038Z,4.80
2023-01-13T08:15:30.385Z,4.50
2023-01-13T08:18:02.546Z,4.70
2023-01-13T08:20:35.005Z,4.70
2023-01-13T08:23:07.568Z,5.10
2023-01-13T08:25:39.975Z,4.70
2023-01-13T08:28:12.571Z,4.80
2023-01-13T08:30:44.913Z,4.00
2023-01-13T08:33:17.943Z,4.50
2023-01-13T08:35:53.125Z,4.70
2023-01-13T08:38:28.520Z,4.70
2023-01-13T08:41:00.759Z,5.40
2023-01-13T08:43:33.279Z,4.70
2023-01-13T08:46:06.697Z,4.60
2023-01-13T08:48:39.285Z,5.30
2023-01-13T08:51:12.639Z,5.50
2023-01-13T08:53:44.774Z,4.90
2023-01-13T08:56:17.279Z,5.00
2023-01-13T08:58:49.777Z,5.00
2023-01-13T09:01:24.872Z,4.90
2023-01-13T09:03:57.690Z,4.50
2023-01-13T09:06:29.767Z,3.40
2023-01-13T09:09:02.865Z,4.50
2023-01-13T09:11:57.075Z,4.40
2023-01-13T09:17:01.218Z,4.10
2023-01-13T09:19:33.576Z,4.00
2023-01-13T09:22:05.943Z,4.10
2023-01-13T09:24:37.955Z,4.70
2023-01-13T09:27:10.393Z,4.40
2023-01-13T09:29:42.772Z,4.80
2023-01-13T09:32:17.074Z,4.00
2023-01-13T09:35:02.056Z,4.30
2023-01-13T09:37:35.694Z,4.30
2023-01-13T09:40:11.398Z,4.80
2023-01-13T09:43:06.121Z,3.80
2023-01-13T09:45:45.789Z,4.20
2023-01-13T09:48:22.478Z,4.30
2023-01-13T09:51:04.639Z,4.60
2023-01-13T09:53:39.889Z,5.10
2023-01-13T09:56:13.563Z,4.90
2023-01-13T09:58:46.594Z,5.10
2023-01-13T10:01:28.272Z,4.80
2023-01-13T10:04:04.170Z,4.10
2023-01-13T10:06:40.408Z,4.50
2023-01-13T10:09:20.211Z,4.60
2023-01-13T10:12:13.848Z,4.10
2023-01-13T10:14:53.498Z,4.40
2023-01-13T10:17:31.962Z,4.70
2023-01-13T10:20:18.459Z,5.00
2023-01-13T10:23:02.217Z,4.40
2023-01-13T10:25:55.013Z,5.00
2023-01-13T10:28:27.889Z,4.50
2023-01-13T10:31:00.148Z,4.50
2023-01-13T10:33:32.755Z,5.20
2023-01-13T10:36:14.356Z,5.20
2023-01-13T10:38:48.374Z,4.20
2023-01-13T10:41:29.257Z,4.70
2023-01-13T10:44:08.424Z,4.20
2023-01-13T10:46:55.411Z,4.10
2023-01-13T10:49:34.325Z,4.60
2023-01-13T10:52:29.074Z,4.00
2023-01-13T10:55:01.517Z,4.10
2023-01-13T10:57:39.732Z,4.10
2023-01-13T11:00:29.923Z,4.60
2023-01-13T11:03:18.616Z,4.40
2023-01-13T11:05:55.682Z,3.90
2023-01-13T11:08:30.252Z,4.00
2023-01-13T11:11:02.981Z,4.30
2023-01-13T11:13:59.370Z,4.20
2023-01-13T11:16:31.780Z,4.80
2023-01-13T11:19:13.687Z,4.70
2023-01-13T11:21:54.823Z,4.10
2023-01-13T11:24:37.346Z,3.50
2023-01-13T11:27:17.876Z,3.60
2023-01-13T11:30:10.312Z,4.00
2023-01-13T11:32:55.387Z,3.70
2023-01-13T11:35:28.740Z,3.50
2023-01-13T11:38:06.159Z,3.80
2023-01-13T11:40:43.127Z,3.30
2023-01-13T11:43:25.131Z,3.30
2023-01-13T11:46:00.724Z,3.00
2023-01-13T11:48:37.728Z,3.20
2023-01-13T11:51:24.580Z,2.80
2023-01-13T11:54:11.271Z,2.80
2023-01-13T11:57:05.504Z,3.00
2023-01-13T11:59:56.610Z,3.00
2023-01-13T12:02:46.844Z,3.20
2023-01-13T12:05:26.844Z,2.90
2023-01-13T12:08:12.819Z,2.90
2023-01-13T12:10:56.847Z,3.00
2023-01-13T12:13:42.128Z,2.50
2023-01-13T12:16:27.393Z,2.70
2023-01-13T12:19:20.331Z,2.50
2023-01-13T12:22:05.043Z,2.80
2023-01-13T12:24:44.566Z,3.30
2023-01-13T12:27:24.357Z,2.60
2023-01-13T12:30:00.269Z,2.70
2023-01-13T12:32:36.235Z,2.70
2023-01-13T12:35:25.978Z,3.00
2023-01-13T12:38:05.461Z,3.10
2023-01-13T12:40:49.275Z,3.60
2023-01-13T12:43:40.839Z,3.10
2023-01-13T12:46:53.388Z,3.10
2023-01-13T12:49:28.107Z,3.30
2023-01-13T12:52:18.830Z,3.20
2023-01-13T12:55:24.000Z,3.10
2023-01-13T12:58:27.667Z,3.00
2023-01-13T13:01:15.876Z,3.30
2023-01-13T13:04:12.586Z,3.30
2023-01-13T13:06:47.800Z,2.80
2023-01-13T13:09:28.130Z,3.00
2023-01-13T13:12:17.790Z,2.70
2023-01-13T13:15:07.941Z,3.10
2023-01-13T13:18:04.767Z,3.10
2023-01-13T13:21:04.228Z,3.00
2023-01-13T13:24:03.305Z,4.10
2023-01-13T13:26:47.134Z,3.70
2023-01-13T13:29:52.684Z,3.80
2023-01-13T13:32:56.217Z,3.20
2023-01-13T13:35:41.959Z,3.10
2023-01-13T13:38:48.829Z,4.00
2023-01-13T13:41:52.673Z,3.20
2023-01-13T13:44:47.333Z,3.40
2023-01-13T13:47:22.116Z,3.50
2023-01-13T13:49:56.575Z,4.20
2023-01-13T13:52:38.090Z,4.00
2023-01-13T13:55:17.800Z,3.60
2023-01-13T13:57:51.914Z,3.80
2023-01-13T14:00:28.333Z,4.30
2023-01-13T14:03:03.558Z,4.20
2023-01-13T14:05:37.053Z,4.60
2023-01-13T14:08:17.093Z,4.00
2023-01-13T14:10:49.987Z,4.40
2023-01-13T14:13:26.515Z,3.50
2023-01-13T14:16:01.687Z,3.60
2023-01-13T14:18:45.694Z,3.40
2023-01-13T14:21:26.025Z,3.80
2023-01-13T14:24:02.066Z,3.50
2023-01-13T14:26:38.205Z,3.90
2023-01-13T14:29:15.932Z,4.30
2023-01-13T14:31:50.137Z,3.80
2023-01-13T14:34:32.114Z,4.30
2023-01-13T14:37:23.070Z,4.80
2023-01-13T14:39:56.805Z,5.00
2023-01-13T14:42:31.959Z,5.50
2023-01-13T14:45:04.648Z,5.40
2023-01-13T14:47:37.176Z,4.70
2023-01-13T14:50:26.168Z,4.30
2023-01-13T14:53:00.995Z,4.30
2023-01-13T14:55:34.684Z,4.60
2023-01-13T15:01:30.131Z,4.20
2023-01-13T15:04:20.649Z,4.30
2023-01-13T15:06:58.200Z,4.60
2023-01-13T15:09:46.810Z,4.40
2023-01-13T15:12:31.043Z,5.10
2023-01-13T15:15:04.413Z,4.30
2023-01-13T15:17:37.371Z,4.10
2023-01-13T15:20:16.447Z,3.40
2023-01-13T15:22:48.589Z,4.00
2023-01-13T15:25:21.032Z,3.90
2023-01-13T15:27:54.581Z,3.40
2023-01-13T15:33:00.791Z,4.10
2023-01-13T15:35:33.033Z,3.30
2023-01-13T15:38:10.981Z,3.60
2023-01-13T15:40:46.207Z,3.40
2023-01-13T15:43:38.304Z,27.40
2023-01-13T15:46:41.026Z,6.90
2023-01-13T15:49:21.585Z,4.90
2023-01-13T15:51:57.434Z,4.40
2023-01-13T15:54:30.169Z,4.30
2023-01-13T15:57:02.447Z,3.90
2023-01-13T15:59:34.476Z,4.00
2023-01-13T16:02:11.241Z,3.80
2023-01-13T16:04:43.372Z,5.90
2023-01-13T16:07:19.181Z,4.50
2023-01-13T16:09:51.500Z,4.50
2023-01-13T16:12:23.681Z,4.00
2023-01-13T16:14:55.703Z,5.70
2023-01-13T16:17:30.379Z,5.00
2023-01-13T16:20:02.599Z,4.30
2023-01-13T16:22:34.770Z,6.50
2023-01-13T16:25:07.468Z,6.00
2023-01-13T16:27:39.735Z,7.20
2023-01-13T16:30:25.108Z,4.30
2023-01-13T16:32:58.473Z,9.50
2023-01-13T16:35:32.355Z,8.40
2023-01-13T16:38:05.028Z,5.80
2023-01-13T16:40:38.303Z,6.50
2023-01-13T16:43:13.357Z,6.10
2023-01-13T16:45:46.046Z,6.00
2023-01-13T16:48:22.933Z,5.40
2023-01-13T16:50:56.046Z,5.80
2023-01-13T16:53:28.211Z,5.90
2023-01-13T16:56:00.969Z,5.10
2023-01-13T16:58:33.729Z,6.40
2023-01-13T17:01:15.738Z,6.50
2023-01-13T17:03:51.904Z,5.90
2023-01-13T17:06:28.815Z,6.10
2023-01-13T17:09:08.588Z,5.60
2023-01-13T17:11:41.031Z,5.80
2023-01-13T17:14:18.498Z,5.50
2023-01-13T17:16:52.195Z,6.80
2023-01-13T17:19:26.001Z,5.70
2023-01-13T17:21:58.293Z,5.70
2023-01-13T17:24:33.249Z,6.60
2023-01-13T17:27:08.070Z,5.20
2023-01-13T17:29:42.351Z,7.40
2023-01-13T17:32:20.714Z,5.40
2023-01-13T17:34:54.991Z,6.20
2023-01-13T17:37:30.434Z,5.30
2023-01-13T17:40:03.179Z,5.30
2023-01-13T17:42:35.308Z,5.30
2023-01-13T17:45:11.560Z,7.40
2023-01-13T17:50:31.321Z,4.70
2023-01-13T17:53:06.208Z,5.20
2023-01-13T17:55:39.225Z,4.90
2023-01-13T17:58:11.377Z,5.00
2023-01-13T18:00:46.377Z,5.10
2023-01-13T18:03:21.963Z,4.70
2023-01-13T18:05:55.250Z,4.60
2023-01-13T18:08:29.998Z,5.70
2023-01-13T18:11:03.141Z,5.40
2023-01-13T18:13:36.711Z,7.20
2023-01-13T18:16:11.535Z,8.90
2023-01-13T18:18:45.822Z,6.50
2023-01-13T18:21:40.588Z,6.00
2023-01-13T18:24:34.076Z,7.50
2023-01-13T18:27:23.717Z,6.60
2023-01-13T18:29:58.689Z,6.30
2023-01-13T18:32:33.770Z,5.40
2023-01-13T18:35:10.702Z,6.30
2023-01-13T18:37:46.503Z,6.40
2023-01-13T18:40:25.619Z,6.20
2023-01-13T18:42:59.833Z,5.70
2023-01-13T18:45:33.783Z,6.50
2023-01-13T18:48:08.813Z,6.50
2023-01-13T18:50:42.242Z,6.70
2023-01-13T18:53:19.160Z,6.10
2023-01-13T18:55:56.950Z,6.20
2023-01-13T18:58:35.949Z,6.00
2023-01-13T19:01:11.677Z,7.00
2023-01-13T19:03:46.404Z,6.00
2023-01-13T19:06:22.958Z,6.20
2023-01-13T19:08:58.981Z,6.10
2023-01-13T19:11:32.711Z,7.50
2023-01-13T19:16:37.287Z,6.10
2023-01-13T19:19:22.523Z,7.40
2023-01-13T19:21:58.079Z,5.90
2023-01-13T19:24:31.760Z,6.40
2023-01-13T19:27:07.291Z,6.40
2023-01-13T19:29:50.168Z,5.70
2023-01-13T19:32:28.086Z,6.40
2023-01-13T19:35:01.482Z,6.80
2023-01-13T19:37:34.806Z,6.90
2023-01-13T19:40:09.633Z,7.30
2023-01-13T19:43:03.280Z,7.20
2023-01-13T19:45:36.766Z,7.60
2023-01-13T19:48:09.602Z,8.20
2023-01-13T19:50:42.496Z,8.70
2023-01-13T19:53:22.295Z,10.40
2023-01-13T19:56:04.857Z,9.80
2023-01-13T19:58:37.765Z,10.70
2023-01-13T20:01:12.669Z,9.40
2023-01-13T20:03:46.922Z,9.20
2023-01-13T20:06:20.513Z,9.50
2023-01-13T20:08:55.575Z,8.50
2023-01-13T20:11:33.472Z,8.70
2023-01-13T20:14:06.228Z,8.60
2023-01-13T20:16:39.087Z,8.40
2023-01-13T20:19:14.362Z,9.40
2023-01-13T20:21:48.663Z,9.10
2023-01-13T20:24:21.819Z,10.00
2023-01-13T20:26:59.774Z,9.70
2023-01-13T20:29:32.215Z,9.30
2023-01-13T20:32:04.932Z,9.20
2023-01-13T20:34:39.265Z,10.20
2023-01-13T20:37:14.546Z,8.60
2023-01-13T20:39:47.442Z,9.20
2023-01-13T20:42:32.301Z,9.40
2023-01-13T20:45:04.425Z,8.10
2023-01-13T20:47:36.767Z,7.80
2023-01-13T20:50:13.724Z,9.10
2023-01-13T20:52:47.942Z,8.20
2023-01-13T20:55:20.154Z,9.30
2023-01-13T20:57:54.037Z,10.10
2023-01-13T21:00:28.802Z,10.40
2023-01-13T21:03:01.080Z,10.20
2023-01-13T21:05:34.346Z,10.40
2023-01-13T21:08:06.840Z,9.90
2023-01-13T21:10:41.712Z,10.70
2023-01-13T21:13:33.016Z,10.30
2023-01-13T21:16:06.079Z,9.30
2023-01-13T21:18:57.427Z,9.40
2023-01-13T21:21:30.244Z,9.30
2023-01-13T21:24:02.259Z,9.30
2023-01-13T21:26:34.882Z,9.60
2023-01-13T21:29:07.618Z,10.30
2023-01-13T21:31:41.033Z,9.80
2023-01-13T21:34:13.908Z,9.20
2023-01-13T21:36:46.256Z,7.90
2023-01-13T21:39:18.566Z,8.90
2023-01-13T21:42:08.785Z,8.10
2023-01-13T21:44:58.257Z,7.30
2023-01-13T21:47:48.041Z,7.00
2023-01-13T21:50:21.930Z,7.80
2023-01-13T21:52:54.795Z,7.50
2023-01-13T21:55:29.729Z,7.50
2023-01-13T21:58:09.427Z,7.30
2023-01-13T22:00:42.799Z,7.90
2023-01-13T22:03:19.608Z,7.60
2023-01-13T22:05:58.139Z,7.70
2023-01-13T22:08:36.466Z,7.20
2023-01-13T22:11:13.355Z,8.00
2023-01-13T22:14:02.629Z,7.60
2023-01-13T22:16:36.900Z,8.10
2023-01-13T22:19:09.874Z,7.60
2023-01-13T22:21:42.542Z,7.30
2023-01-13T22:24:15.172Z,7.20
2023-01-13T22:26:47.488Z,7.60
2023-01-13T22:29:22.686Z,7.20
2023-01-13T22:31:54.983Z,6.90
2023-01-13T22:34:27.557Z,8.10
2023-01-13T22:37:00.105Z,7.20
2023-01-13T22:39:32.428Z,7.00
2023-01-13T22:42:05.335Z,7.90
2023-01-13T22:44:39.900Z,7.40
2023-01-13T22:47:11.987Z,7.40
2023-01-13T22:49:47.938Z,7.30
2023-01-13T22:52:20.837Z,7.40
2023-01-13T22:54:52.816Z,7.10
2023-01-13T22:57:24.908Z,6.90
2023-01-13T22:59:57.627Z,6.20
2023-01-13T23:02:34.523Z,6.40
2023-01-13T23:05:07.476Z,7.10
2023-01-13T23:07:40.833Z,6.80
2023-01-13T23:10:14.411Z,7.10
2023-01-13T23:15:18.135Z,7.00
2023-01-13T23:17:51.809Z,7.30
2023-01-13T23:22:54.719Z,6.70
2023-01-13T23:25:27.593Z,6.80
2023-01-13T23:27:59.935Z,6.40
2023-01-13T23:30:32.007Z,6.70
2023-01-13T23:33:04.477Z,7.60
2023-01-13T23:35:36.609Z,7.10
2023-01-13T23:38:08.765Z,7.20
2023-01-13T23:40:43.832Z,6.20
2023-01-13T23:43:16.090Z,7.00
2023-01-13T23:45:48.286Z,6.80
2023-01-13T23:48:20.455Z,7.10
2023-01-13T23:51:02.216Z,7.10
2023-01-13T23:53:39.199Z,7.30
2023-01-13T23:56:16.292Z,6.60
2023-01-13T23:58:52.479Z,6.60
